Wetterdaten: Woche 18.03.02 - 24.03.02 (KW12)
Datum Zeit Temperatur Luftfeuchte Luftdruck Regenmenge Wind Richtung Taupunkt Windchill
18.03.2002 00:00 6.1 C 87 % 1012.6 hPa 0.0 l/m 1.1 km/h (0 Bft) O-SO 4.2 C 6.1 C
18.03.2002 01:00 5.1 C 88 % 1012.6 hPa 0.0 l/m 0.9 km/h (0 Bft) O-SO 3.3 C 5.1 C
18.03.2002 02:00 4.1 C 93 % 1012.6 hPa 0.0 l/m 0.5 km/h (0 Bft) O-SO 3.0 C 4.1 C
18.03.2002 03:00 3.5 C 95 % 1012.6 hPa 0.0 l/m 1.7 km/h (1 Bft) O-SO 2.7 C 3.1 C
18.03.2002 04:00 2.7 C 96 % 1012.6 hPa 0.0 l/m 2.5 km/h (1 Bft) O-SO 2.0 C 2.1 C
18.03.2002 05:00 2.7 C 97 % 1012.6 hPa 0.0 l/m 1.8 km/h (1 Bft) O-SO 2.3 C 2.3 C
18.03.2002 06:00 2.2 C 97 % 1012.6 hPa 0.0 l/m 0.7 km/h (0 Bft) NO 1.7 C 2.0 C
18.03.2002 07:00 3.2 C 98 % 1012.6 hPa 0.0 l/m 0.0 km/h (0 Bft) N 2.9 C 3.2 C
18.03.2002 08:00 6.5 C 87 % 1012.6 hPa 0.0 l/m 1.5 km/h (1 Bft) O-SO 4.4 C 6.4 C
18.03.2002 09:00 9.2 C 73 % 1012.6 hPa 0.0 l/m 7.6 km/h (2 Bft) SO 4.6 C 8.1 C
18.03.2002 10:00 11.2 C 64 % 1012.6 hPa 0.0 l/m 7.0 km/h (2 Bft) SO 4.6 C 11.2 C
18.03.2002 11:00 13.8 C 54 % 1011.6 hPa 0.0 l/m 13.8 km/h (3 Bft) SO 4.6 C 13.8 C
18.03.2002 12:00 15.8 C 47 % 1011.3 hPa 0.0 l/m 7.5 km/h (2 Bft) W 4.4 C 15.8 C
18.03.2002 13:00 17.3 C 36 % 1010.5 hPa 0.0 l/m 16.9 km/h (3 Bft) W-NW 2.1 C 17.3 C
18.03.2002 14:00 18.2 C 33 % 1009.6 hPa 0.0 l/m 16.1 km/h (3 Bft) W 1.6 C 18.2 C
18.03.2002 15:00 17.2 C 37 % 1009.4 hPa 0.0 l/m 13.6 km/h (3 Bft) SW 2.5 C 17.2 C
18.03.2002 16:00 16.5 C 40 % 1008.6 hPa 0.0 l/m 13.9 km/h (3 Bft) W-SW 2.7 C 16.5 C
18.03.2002 17:00 15.6 C 42 % 1008.4 hPa 0.0 l/m 13.7 km/h (3 Bft) SW 2.8 C 15.6 C
18.03.2002 18:00 14.2 C 49 % 1008.4 hPa 0.0 l/m 6.0 km/h (2 Bft) S-SO 3.5 C 14.2 C
18.03.2002 19:00 13.5 C 53 % 1008.4 hPa 0.0 l/m 9.9 km/h (2 Bft) S-SO 4.0 C 13.5 C
18.03.2002 20:00 14.0 C 51 % 1008.4 hPa 0.0 l/m 19.1 km/h (3 Bft) W-NW 3.9 C 14.0 C
18.03.2002 21:00 11.9 C 71 % 1009.6 hPa 0.3 l/m 24.4 km/h (4 Bft) NW 6.7 C 11.9 C
18.03.2002 22:00 9.7 C 86 % 1010.3 hPa 0.6 l/m 18.0 km/h (3 Bft) W-NW 7.6 C 7.9 C
18.03.2002 23:00 9.4 C 90 % 1009.7 hPa 1.8 l/m 15.9 km/h (3 Bft) W 7.8 C 7.1 C
19.03.2002 00:00 9.6 C 87 % 1009.4 hPa 1.5 l/m 23.9 km/h (4 Bft) W 7.6 C 6.7 C
19.03.2002 01:00 9.9 C 85 % 1008.6 hPa 2.1 l/m 22.7 km/h (4 Bft) W-SW 7.5 C 7.0 C
19.03.2002 02:00 9.7 C 87 % 1008.4 hPa 1.2 l/m 20.7 km/h (4 Bft) W-SW 7.6 C 7.0 C
19.03.2002 03:00 10.0 C 83 % 1007.4 hPa 0.3 l/m 25.5 km/h (4 Bft) W 7.3 C 8.7 C
19.03.2002 04:00 9.4 C 90 % 1007.1 hPa 2.7 l/m 22.2 km/h (4 Bft) W-NW 7.8 C 6.5 C
19.03.2002 05:00 9.3 C 93 % 1006.3 hPa 3.0 l/m 16.0 km/h (3 Bft) W-NW 8.2 C 7.1 C
19.03.2002 06:00 9.4 C 95 % 1006.3 hPa 2.7 l/m 10.9 km/h (2 Bft) W-NW 8.6 C 7.9 C
19.03.2002 07:00 9.6 C 95 % 1006.3 hPa 2.4 l/m 6.8 km/h (2 Bft) W 8.9 C 8.8 C
19.03.2002 08:00 9.9 C 94 % 1006.0 hPa 5.1 l/m 16.5 km/h (3 Bft) W-NW 9.1 C 7.7 C
19.03.2002 09:00 10.1 C 95 % 1006.2 hPa 4.5 l/m 11.6 km/h (2 Bft) W-NW 9.3 C 9.5 C
19.03.2002 10:00 10.6 C 95 % 1006.3 hPa 2.7 l/m 9.0 km/h (2 Bft) W-NW 9.9 C 10.6 C
19.03.2002 11:00 10.7 C 94 % 1006.3 hPa 2.4 l/m 16.4 km/h (3 Bft) W-SW 9.8 C 10.7 C
19.03.2002 12:00 10.9 C 94 % 1006.3 hPa 0.9 l/m 15.4 km/h (3 Bft) SW 10.0 C 10.9 C
19.03.2002 13:00 11.3 C 93 % 1006.7 hPa 1.2 l/m 14.9 km/h (3 Bft) SW 10.2 C 11.3 C
19.03.2002 14:00 11.6 C 95 % 1007.9 hPa 0.3 l/m 8.7 km/h (2 Bft) W-NW 10.9 C 11.6 C
19.03.2002 15:00 13.8 C 79 % 1008.4 hPa 0.0 l/m 33.9 km/h (5 Bft) NW 10.3 C 13.8 C
19.03.2002 16:00 14.8 C 71 % 1008.6 hPa 0.0 l/m 36.0 km/h (5 Bft) W-NW 9.6 C 14.8 C
19.03.2002 17:00 14.7 C 71 % 1009.4 hPa 0.0 l/m 30.9 km/h (5 Bft) W-NW 9.4 C 14.7 C
19.03.2002 18:00 13.6 C 78 % 1010.3 hPa 0.0 l/m 28.7 km/h (4 Bft) NW 9.7 C 13.6 C
19.03.2002 19:00 12.5 C 87 % 1011.4 hPa 1.2 l/m 22.9 km/h (4 Bft) W-NW 10.4 C 12.5 C
19.03.2002 20:00 12.2 C 90 % 1012.5 hPa 0.6 l/m 28.7 km/h (4 Bft) NW 10.7 C 12.2 C
19.03.2002 21:00 12.1 C 91 % 1013.4 hPa 0.9 l/m 34.0 km/h (5 Bft) NW 10.6 C 12.1 C
19.03.2002 22:00 12.1 C 91 % 1013.9 hPa 0.6 l/m 31.0 km/h (5 Bft) NW 10.7 C 12.1 C
19.03.2002 23:00 11.8 C 91 % 1014.7 hPa 0.0 l/m 24.1 km/h (4 Bft) NW 10.3 C 11.8 C
20.03.2002 00:00 11.4 C 92 % 1014.7 hPa 0.9 l/m 16.1 km/h (3 Bft) NW 10.2 C 11.4 C
20.03.2002 01:00 11.2 C 96 % 1014.7 hPa 2.1 l/m 17.7 km/h (3 Bft) W-NW 10.5 C 11.2 C
20.03.2002 02:00 11.3 C 93 % 1014.7 hPa 0.9 l/m 29.1 km/h (5 Bft) NW 10.2 C 11.3 C
20.03.2002 03:00 10.9 C 92 % 1014.8 hPa 2.1 l/m 24.5 km/h (4 Bft) NW 9.7 C 10.9 C
20.03.2002 04:00 10.9 C 94 % 1015.7 hPa 1.5 l/m 26.7 km/h (4 Bft) NW 9.8 C 10.9 C
20.03.2002 05:00 11.6 C 83 % 1015.7 hPa 0.0 l/m 33.0 km/h (5 Bft) W-NW 8.7 C 11.6 C
20.03.2002 06:00 11.7 C 80 % 1016.0 hPa 0.0 l/m 21.5 km/h (4 Bft) W-NW 8.4 C 11.7 C
20.03.2002 07:00 11.6 C 78 % 1017.1 hPa 0.0 l/m 30.2 km/h (5 Bft) NW 8.0 C 11.6 C
20.03.2002 08:00 11.9 C 79 % 1018.0 hPa 0.0 l/m 25.9 km/h (4 Bft) NW 8.3 C 11.9 C
20.03.2002 09:00 11.7 C 88 % 1018.9 hPa 0.3 l/m 21.3 km/h (4 Bft) NW 9.7 C 11.7 C
20.03.2002 10:00 12.0 C 87 % 1019.2 hPa 0.3 l/m 25.2 km/h (4 Bft) NW 9.9 C 12.0 C
20.03.2002 11:00 13.3 C 76 % 1019.8 hPa 0.0 l/m 27.1 km/h (4 Bft) W-NW 9.2 C 13.3 C
20.03.2002 12:00 14.5 C 66 % 1019.9 hPa 0.0 l/m 39.7 km/h (6 Bft) W-NW 8.3 C 14.5 C
20.03.2002 13:00 14.6 C 65 % 1019.9 hPa 0.0 l/m 32.9 km/h (5 Bft) NW 8.0 C 14.6 C
20.03.2002 14:00 15.9 C 55 % 1019.9 hPa 0.0 l/m 34.2 km/h (5 Bft) NW 6.9 C 15.9 C
20.03.2002 15:00 16.2 C 51 % 1019.9 hPa 0.0 l/m 35.7 km/h (5 Bft) W-NW 6.1 C 16.2 C
20.03.2002 16:00 15.6 C 52 % 1019.9 hPa 0.0 l/m 33.7 km/h (5 Bft) NW 5.8 C 15.6 C
20.03.2002 17:00 14.1 C 62 % 1020.5 hPa 0.0 l/m 30.0 km/h (5 Bft) NW 6.9 C 14.1 C
20.03.2002 18:00 13.7 C 66 % 1020.9 hPa 0.0 l/m 29.7 km/h (5 Bft) NW 7.3 C 13.7 C
20.03.2002 19:00 12.4 C 75 % 1021.6 hPa 0.9 l/m 22.6 km/h (4 Bft) NW 8.1 C 12.4 C
20.03.2002 20:00 12.8 C 75 % 1022.4 hPa 0.0 l/m 26.0 km/h (4 Bft) NW 8.4 C 12.8 C
20.03.2002 21:00 13.6 C 68 % 1023.0 hPa 0.0 l/m 23.9 km/h (4 Bft) W-NW 7.8 C 13.6 C
20.03.2002 22:00 13.8 C 66 % 1023.0 hPa 0.0 l/m 31.7 km/h (5 Bft) NW 7.6 C 13.8 C
20.03.2002 23:00 13.6 C 68 % 1023.0 hPa 0.0 l/m 27.8 km/h (4 Bft) W-NW 7.7 C 13.6 C
21.03.2002 00:00 13.4 C 68 % 1023.0 hPa 0.0 l/m 19.8 km/h (3 Bft) W-NW 7.8 C 13.4 C
21.03.2002 01:00 13.7 C 66 % 1023.0 hPa 0.0 l/m 28.4 km/h (4 Bft) NW 7.5 C 13.7 C
21.03.2002 02:00 13.7 C 66 % 1022.8 hPa 0.0 l/m 26.7 km/h (4 Bft) W-NW 7.5 C 13.7 C
21.03.2002 03:00 13.3 C 69 % 1022.2 hPa 0.0 l/m 25.2 km/h (4 Bft) NW 7.7 C 13.3 C
21.03.2002 04:00 13.1 C 70 % 1022.5 hPa 0.0 l/m 24.8 km/h (4 Bft) NW 7.7 C 13.1 C
21.03.2002 05:00 12.4 C 73 % 1022.9 hPa 0.0 l/m 23.6 km/h (4 Bft) NW 7.8 C 12.4 C
21.03.2002 06:00 12.0 C 73 % 1023.0 hPa 0.0 l/m 22.8 km/h (4 Bft) NW 7.4 C 12.0 C
21.03.2002 07:00 11.9 C 74 % 1023.0 hPa 0.0 l/m 21.6 km/h (4 Bft) NW 7.4 C 11.9 C
21.03.2002 08:00 12.1 C 77 % 1023.0 hPa 0.0 l/m 14.7 km/h (3 Bft) NW 8.1 C 12.1 C
21.03.2002 09:00 12.6 C 73 % 1023.0 hPa 0.0 l/m 22.7 km/h (4 Bft) NW 7.9 C 12.6 C
21.03.2002 10:00 13.1 C 70 % 1023.0 hPa 0.0 l/m 21.5 km/h (4 Bft) NW 7.7 C 13.1 C
21.03.2002 11:00 13.5 C 69 % 1023.0 hPa 0.0 l/m 25.5 km/h (4 Bft) NW 8.0 C 13.5 C
21.03.2002 12:00 14.1 C 68 % 1023.0 hPa 0.0 l/m 25.1 km/h (4 Bft) NW 8.2 C 14.1 C
21.03.2002 13:00 14.6 C 65 % 1022.0 hPa 0.0 l/m 32.3 km/h (5 Bft) NW 8.1 C 14.6 C
21.03.2002 14:00 15.2 C 62 % 1021.5 hPa 0.0 l/m 32.1 km/h (5 Bft) NW 8.0 C 15.2 C
21.03.2002 15:00 15.7 C 59 % 1020.6 hPa 0.0 l/m 37.1 km/h (5 Bft) NW 7.8 C 15.7 C
21.03.2002 16:00 15.0 C 60 % 1020.1 hPa 0.0 l/m 46.5 km/h (6 Bft) NW 7.3 C 15.0 C
21.03.2002 17:00 14.1 C 61 % 1019.9 hPa 0.0 l/m 41.7 km/h (6 Bft) NW 6.6 C 14.1 C
21.03.2002 18:00 13.8 C 59 % 1019.9 hPa 0.0 l/m 29.8 km/h (5 Bft) NW 5.8 C 13.8 C
21.03.2002 19:00 13.2 C 62 % 1019.9 hPa 0.0 l/m 34.9 km/h (5 Bft) NW 5.9 C 13.2 C
21.03.2002 20:00 12.7 C 66 % 1019.9 hPa 0.0 l/m 16.2 km/h (3 Bft) W-NW 6.5 C 12.7 C
21.03.2002 21:00 11.2 C 79 % 1019.9 hPa 1.5 l/m 18.3 km/h (3 Bft) W-NW 7.6 C 11.2 C
21.03.2002 22:00 10.0 C 88 % 1020.2 hPa 1.2 l/m 29.8 km/h (5 Bft) NW 8.2 C 8.5 C
21.03.2002 23:00 9.6 C 90 % 1021.6 hPa 0.0 l/m 22.0 km/h (4 Bft) NW 8.0 C 6.7 C
22.03.2002 00:00 9.5 C 90 % 1022.2 hPa 0.0 l/m 18.7 km/h (3 Bft) W-NW 7.9 C 6.9 C
22.03.2002 01:00 9.4 C 87 % 1023.0 hPa 0.0 l/m 14.4 km/h (3 Bft) NW 7.3 C 7.4 C
22.03.2002 02:00 7.4 C 92 % 1023.0 hPa 0.0 l/m 0.7 km/h (0 Bft) O 6.2 C 7.3 C
22.03.2002 03:00 6.9 C 97 % 1024.0 hPa 0.0 l/m 0.0 km/h (0 Bft) N 6.5 C 6.9 C
22.03.2002 04:00 6.8 C 99 % 1024.1 hPa 0.0 l/m 0.3 km/h (0 Bft) O-SO 6.7 C 6.8 C
22.03.2002 05:00 6.9 C 99 % 1024.1 hPa 0.0 l/m 1.1 km/h (0 Bft) O-SO 6.9 C 6.9 C
22.03.2002 06:00 7.4 C 95 % 1024.1 hPa 0.0 l/m 6.2 km/h (2 Bft) NW 6.7 C 6.5 C
22.03.2002 07:00 8.2 C 85 % 1024.2 hPa 0.0 l/m 13.1 km/h (3 Bft) NW 5.9 C 6.1 C
22.03.2002 08:00 8.4 C 81 % 1024.9 hPa 0.0 l/m 17.9 km/h (3 Bft) NW 5.3 C 5.6 C
22.03.2002 09:00 9.0 C 77 % 1025.1 hPa 0.0 l/m 14.0 km/h (3 Bft) NW 5.3 C 7.0 C
22.03.2002 10:00 9.6 C 73 % 1025.1 hPa 0.0 l/m 16.2 km/h (3 Bft) W-NW 5.0 C 7.4 C
22.03.2002 11:00 10.2 C 70 % 1024.7 hPa 0.0 l/m 22.9 km/h (4 Bft) NW 5.0 C 9.3 C
22.03.2002 12:00 10.9 C 66 % 1024.0 hPa 0.0 l/m 33.3 km/h (5 Bft) NW 4.8 C 10.9 C
22.03.2002 13:00 11.0 C 65 % 1023.0 hPa 0.0 l/m 37.7 km/h (5 Bft) NW 4.8 C 11.0 C
22.03.2002 14:00 10.4 C 70 % 1023.0 hPa 0.0 l/m 31.1 km/h (5 Bft) NW 5.2 C 10.4 C
22.03.2002 15:00 10.2 C 73 % 1022.5 hPa 0.3 l/m 33.6 km/h (5 Bft) NW 5.6 C 9.5 C
22.03.2002 16:00 9.6 C 78 % 1022.0 hPa 0.0 l/m 23.2 km/h (4 Bft) W-NW 6.0 C 6.8 C
22.03.2002 17:00 9.7 C 74 % 1022.0 hPa 0.0 l/m 25.3 km/h (4 Bft) NW 5.3 C 6.6 C
22.03.2002 18:00 9.3 C 75 % 1022.0 hPa 0.0 l/m 33.4 km/h (5 Bft) NW 5.0 C 5.4 C
22.03.2002 19:00 8.5 C 83 % 1022.0 hPa 1.8 l/m 18.3 km/h (3 Bft) NW 5.8 C 5.9 C
22.03.2002 20:00 7.8 C 92 % 1022.0 hPa 1.8 l/m 12.3 km/h (3 Bft) NW 6.6 C 5.8 C
22.03.2002 21:00 7.0 C 95 % 1022.8 hPa 0.6 l/m 2.6 km/h (1 Bft) NW 6.2 C 6.6 C
22.03.2002 22:00 5.8 C 93 % 1023.0 hPa 0.0 l/m 5.5 km/h (1 Bft) NW 4.8 C 4.7 C
22.03.2002 23:00 4.6 C 94 % 1023.0 hPa 0.0 l/m 4.5 km/h (1 Bft) O-SO 3.8 C 3.7 C
23.03.2002 00:00 5.1 C 96 % 1023.0 hPa 0.0 l/m 5.6 km/h (1 Bft) O-SO 4.5 C 4.0 C
23.03.2002 01:00 5.0 C 95 % 1023.4 hPa 0.0 l/m 2.4 km/h (1 Bft) O-SO 4.2 C 4.5 C
23.03.2002 02:00 4.5 C 96 % 1023.3 hPa 0.3 l/m 4.0 km/h (1 Bft) O-SO 4.0 C 3.7 C
23.03.2002 03:00 4.1 C 91 % 1024.1 hPa 0.3 l/m 1.7 km/h (1 Bft) O-NO 2.7 C 3.7 C
23.03.2002 04:00 4.0 C 87 % 1024.1 hPa 0.0 l/m 2.2 km/h (1 Bft) O 1.9 C 3.7 C
23.03.2002 05:00 3.6 C 89 % 1024.8 hPa 0.0 l/m 2.9 km/h (1 Bft) O-NO 1.9 C 3.0 C
23.03.2002 06:00 3.1 C 87 % 1025.1 hPa 0.0 l/m 1.6 km/h (1 Bft) O 1.2 C 2.9 C
23.03.2002 07:00 3.4 C 85 % 1026.0 hPa 0.0 l/m 2.7 km/h (1 Bft) O 1.2 C 2.9 C
23.03.2002 08:00 4.1 C 79 % 1026.7 hPa 0.0 l/m 2.1 km/h (1 Bft) O 0.8 C 3.9 C
23.03.2002 09:00 5.1 C 73 % 1027.2 hPa 0.0 l/m 7.1 km/h (2 Bft) O 0.6 C 3.6 C
23.03.2002 10:00 5.6 C 66 % 1027.2 hPa 0.0 l/m 3.8 km/h (1 Bft) O-SO -0.3 C 4.9 C
23.03.2002 11:00 6.2 C 57 % 1027.2 hPa 0.0 l/m 2.1 km/h (1 Bft) O -1.8 C 5.8 C
23.03.2002 12:00 6.8 C 53 % 1027.2 hPa 0.0 l/m 3.8 km/h (1 Bft) O-NO -2.1 C 6.2 C
23.03.2002 13:00 6.7 C 51 % 1027.2 hPa 0.0 l/m 2.0 km/h (1 Bft) N-NO -2.7 C 6.4 C
23.03.2002 14:00 6.9 C 51 % 1027.2 hPa 0.0 l/m 0.9 km/h (0 Bft) N-NO -2.5 C 6.8 C
23.03.2002 15:00 6.0 C 55 % 1027.2 hPa 0.0 l/m 0.8 km/h (0 Bft) NO -2.3 C 6.0 C
23.03.2002 16:00 5.8 C 59 % 1027.2 hPa 0.0 l/m 1.2 km/h (1 Bft) O -1.5 C 5.6 C
23.03.2002 17:00 5.2 C 64 % 1027.2 hPa 0.0 l/m 2.3 km/h (1 Bft) O-SO -1.0 C 4.9 C
23.03.2002 18:00 4.5 C 65 % 1028.1 hPa 0.0 l/m 5.4 km/h (1 Bft) N-NO -1.4 C 3.4 C
23.03.2002 19:00 3.6 C 71 % 1028.3 hPa 0.0 l/m 0.3 km/h (0 Bft) NO -1.2 C 3.6 C
23.03.2002 20:00 3.5 C 73 % 1028.9 hPa 0.0 l/m 0.1 km/h (0 Bft) N -0.8 C 3.5 C
23.03.2002 21:00 2.9 C 74 % 1029.3 hPa 0.0 l/m 0.0 km/h (0 Bft) N -1.3 C 2.9 C
23.03.2002 22:00 2.2 C 78 % 1029.2 hPa 0.0 l/m 1.8 km/h (1 Bft) O-SO -1.3 C 1.7 C
23.03.2002 23:00 1.7 C 80 % 1029.2 hPa 0.0 l/m 1.4 km/h (1 Bft) O-SO -1.3 C 1.3 C
24.03.2002 00:00 1.8 C 84 % 1029.0 hPa 0.0 l/m 0.5 km/h (0 Bft) O-SO -0.6 C 1.8 C
24.03.2002 01:00 2.3 C 82 % 1029.3 hPa 0.0 l/m 0.5 km/h (0 Bft) N-NO -0.5 C 2.3 C
24.03.2002 02:00 2.1 C 77 % 1029.3 hPa 0.0 l/m 1.2 km/h (1 Bft) O-SO -1.4 C 1.9 C
24.03.2002 03:00 1.3 C 83 % 1029.3 hPa 0.0 l/m 1.2 km/h (1 Bft) O-SO -1.3 C 1.3 C
24.03.2002 04:00 1.3 C 84 % 1029.3 hPa 0.0 l/m 0.0 km/h (0 Bft) N -1.1 C 1.3 C
24.03.2002 05:00 1.1 C 86 % 1029.3 hPa 0.0 l/m 0.2 km/h (0 Bft) O-SO -1.1 C 1.1 C
24.03.2002 06:00 0.9 C 89 % 1029.3 hPa 0.0 l/m 0.0 km/h (0 Bft) N -0.8 C 0.9 C
24.03.2002 07:00 1.5 C 82 % 1029.3 hPa 0.0 l/m 0.4 km/h (0 Bft) O-NO -1.2 C 1.5 C
24.03.2002 08:00 2.4 C 79 % 1030.0 hPa 0.0 l/m 2.2 km/h (1 Bft) O-SO -0.9 C 2.0 C
24.03.2002 09:00 4.1 C 69 % 1030.4 hPa 0.0 l/m 9.1 km/h (2 Bft) O-SO -1.0 C 1.9 C
24.03.2002 10:00 4.8 C 62 % 1030.1 hPa 0.0 l/m 9.9 km/h (2 Bft) O-SO -1.8 C 2.8 C
24.03.2002 11:00 3.5 C 71 % 1030.1 hPa 0.0 l/m 16.3 km/h (3 Bft) O-SO -1.3 C 0.0 C
24.03.2002 12:00 3.8 C 66 % 1030.4 hPa 0.0 l/m 2.0 km/h (1 Bft) O-SO -2.0 C 3.4 C
24.03.2002 13:00 5.4 C 51 % 1029.5 hPa 0.0 l/m 6.8 km/h (2 Bft) O -3.9 C 4.1 C
24.03.2002 14:00 5.9 C 47 % 1029.3 hPa 0.0 l/m 7.1 km/h (2 Bft) O -4.5 C 4.7 C
24.03.2002 15:00 6.1 C 51 % 1029.3 hPa 0.0 l/m 12.3 km/h (3 Bft) O-SO -3.4 C 3.8 C
24.03.2002 16:00 5.0 C 50 % 1029.3 hPa 0.0 l/m 5.1 km/h (1 Bft) O-SO -4.4 C 4.0 C
24.03.2002 17:00 4.5 C 48 % 1028.8 hPa 0.0 l/m 5.6 km/h (1 Bft) N-NO -5.4 C 3.3 C
24.03.2002 18:00 3.1 C 55 % 1029.3 hPa 0.0 l/m 1.6 km/h (1 Bft) N -5.2 C 2.9 C
24.03.2002 19:00 2.7 C 57 % 1029.3 hPa 0.0 l/m 2.6 km/h (1 Bft) N -4.8 C 2.2 C
24.03.2002 20:00 2.5 C 59 % 1029.3 hPa 0.0 l/m 2.3 km/h (1 Bft) N-NO -4.6 C 2.1 C
24.03.2002 21:00 1.7 C 63 % 1029.5 hPa 0.0 l/m 1.7 km/h (1 Bft) N-NO -4.6 C 1.4 C
24.03.2002 22:00 1.1 C 66 % 1029.3 hPa 0.0 l/m 0.9 km/h (0 Bft) N-NO -4.6 C 1.1 C
24.03.2002 23:00 0.4 C 69 % 1029.3 hPa 0.0 l/m 1.2 km/h (1 Bft) N -4.6 C 0.3 C
Min-Datum _ 24.03.02 18.03.02 19.03.02 - 18.03.02 - 24.03.02 24.03.02
_ Min-Zeit 23:55 14:18 08:04 - 00:06 - 18:03 11:33
Minimum _ 0.1 C 31 % 1005.2 hPa - 0.0 km/h (0 Bft) - -5.8 C -2.6 C
Max-Datum _ 18.03.02 22.03.02 24.03.02 19.03.02 21.03.02 - 19.03.02 18.03.02
_ Max-Zeit 14:36 03:43 09:00 07:00 16:57 - 14:49 14:36
Maximum _ 18.9 C 100 % 1030.4 hPa 5.1 l/m 59.3 km/h
NW (7 Bft)
- 11.3 C 18.9 C
Durchschnitt _ 9.1 C 75 % 1020.0 hPa #55.8 l/m 15.3 km/h (3 Bft) NW 4.6 C 8.5 C

Durchschnitt Minimum Temp.8.5 C
Durchschnitt Maximum Temp.9.6 C
© Kaiko 2002